Time;durP1;ratioP1;P1;durP2;ratioP2;P2;SDS_P1;SDS_P2;PMS_P1;PMS_P2;Temp;Humidity;BMP_temperature;BMP_pressure;BME280_temperature;BME280_humidity;BME280_pressure;Samples;Min_cycle;Max_cycle;Signal;HPM_P1;HPM_P2
2021/08/30 00:01:20;;;;;;;9.60;7.03;;;16.00;99.90;;;;;;4996382;28;20454;-87
2021/08/30 00:03:46;;;;;;;8.30;6.50;;;16.00;99.90;;;;;;5013992;28;20022;-87
2021/08/30 00:06:12;;;;;;;8.48;6.57;;;16.00;99.90;;;;;;5012856;28;20076;-88
2021/08/30 00:08:38;;;;;;;8.48;6.68;;;16.00;99.90;;;;;;5012304;28;20076;-87
2021/08/30 00:11:04;;;;;;;8.70;6.30;;;16.00;99.90;;;;;;5012329;28;20030;-88
2021/08/30 00:13:31;;;;;;;7.80;5.90;;;15.90;99.90;;;;;;5012329;28;20030;-88
2021/08/30 00:15:57;;;;;;;10.73;6.55;;;15.90;99.90;;;;;;5012608;28;20062;-87
2021/08/30 00:18:32;;;;;;;11.02;7.20;;;15.90;99.90;;;;;;5012510;28;20073;-87
2021/08/30 00:21:02;;;;;;;9.48;6.93;;;16.00;99.90;;;;;;4996467;28;20561;-88
2021/08/30 00:23:30;;;;;;;8.93;6.93;;;15.90;99.90;;;;;;4995977;28;20493;-88
2021/08/30 00:26:01;;;;;;;12.30;7.50;;;15.90;99.90;;;;;;5012547;28;20537;-88
2021/08/30 00:28:31;;;;;;;9.45;6.22;;;15.90;99.90;;;;;;5012452;28;20129;-88
2021/08/30 00:30:56;;;;;;;8.80;6.65;;;15.90;99.90;;;;;;5011817;28;20034;-87
2021/08/30 00:33:39;;;;;;;9.98;6.32;;;15.80;99.90;;;;;;5013531;28;20374;-88
2021/08/30 00:36:05;;;;;;;10.27;6.13;;;15.80;99.90;;;;;;5012461;28;20022;-88
2021/08/30 00:38:31;;;;;;;8.95;6.38;;;15.90;99.90;;;;;;5012301;28;20026;-89
2021/08/30 00:40:58;;;;;;;8.75;6.45;;;15.90;99.90;;;;;;5012195;28;20038;-88
2021/08/30 00:43:24;;;;;;;9.68;6.30;;;15.90;99.90;;;;;;5012212;28;20052;-88
2021/08/30 00:45:53;;;;;;;9.00;6.13;;;15.90;99.90;;;;;;4995762;28;20045;-88
2021/08/30 00:48:19;;;;;;;8.68;6.22;;;15.90;99.90;;;;;;5012443;28;20084;-88
2021/08/30 00:50:45;;;;;;;9.13;6.13;;;15.80;99.90;;;;;;5012104;28;20026;-88
2021/08/30 00:53:11;;;;;;;9.13;5.90;;;15.90;99.90;;;;;;5012223;28;20026;-88
2021/08/30 00:55:37;;;;;;;9.30;6.13;;;15.90;99.90;;;;;;5011592;28;20037;-88
2021/08/30 00:58:03;;;;;;;7.93;6.13;;;16.00;99.90;;;;;;5013348;28;20028;-87
2021/08/30 01:00:29;;;;;;;10.15;6.63;;;16.00;99.90;;;;;;5013531;28;20495;-88
2021/08/30 01:03:00;;;;;;;9.05;6.22;;;16.00;99.90;;;;;;5013066;28;20504;-87
2021/08/30 01:05:26;;;;;;;10.45;6.63;;;16.10;99.90;;;;;;5012140;28;20018;-88
2021/08/30 01:08:07;;;;;;;8.90;5.90;;;16.10;99.90;;;;;;5012128;28;20037;-88
2021/08/30 01:10:48;;;;;;;8.50;6.22;;;16.20;99.90;;;;;;5013141;28;20113;-88
2021/08/30 01:13:31;;;;;;;7.18;5.30;;;16.20;99.90;;;;;;5011794;28;20028;-88
2021/08/30 01:16:07;;;;;;;9.43;6.55;;;16.30;99.90;;;;;;5012138;28;20485;-88
2021/08/30 01:18:35;;;;;;;11.00;7.18;;;16.30;99.90;;;;;;5011948;28;20032;-88
2021/08/30 01:21:15;;;;;;;9.70;6.20;;;16.30;99.90;;;;;;4995699;28;20471;-88
2021/08/30 01:23:45;;;;;;;10.00;7.00;;;16.40;99.90;;;;;;5011601;28;20044;-88
2021/08/30 01:26:14;;;;;;;11.45;7.97;;;16.30;99.90;;;;;;5014563;28;20065;-88
2021/08/30 01:28:59;;;;;;;10.55;6.78;;;16.40;99.90;;;;;;5016689;28;20113;-88
2021/08/30 01:31:50;;;;;;;11.57;7.18;;;16.40;99.90;;;;;;5015383;28;20021;-88
2021/08/30 01:34:18;;;;;;;10.30;7.22;;;16.40;99.90;;;;;;5015722;28;20026;-87
2021/08/30 01:36:45;;;;;;;10.40;6.25;;;16.40;99.90;;;;;;5015506;28;20076;-88
2021/08/30 01:39:11;;;;;;;10.73;7.40;;;16.40;99.90;;;;;;4998737;28;20054;-88
2021/08/30 01:41:38;;;;;;;10.20;6.78;;;16.40;99.90;;;;;;5015067;28;20030;-88
2021/08/30 01:44:06;;;;;;;9.38;6.97;;;16.50;99.90;;;;;;4998714;28;20049;-88
2021/08/30 01:46:34;;;;;;;10.70;6.95;;;16.50;99.90;;;;;;5014916;28;20022;-89
2021/08/30 01:49:01;;;;;;;9.38;6.57;;;16.50;99.90;;;;;;5015132;28;20018;-88
2021/08/30 01:51:28;;;;;;;8.40;6.35;;;16.50;99.90;;;;;;5014882;28;20030;-88
2021/08/30 01:53:55;;;;;;;9.55;6.97;;;16.50;99.90;;;;;;5015086;28;20041;-89
2021/08/30 01:56:23;;;;;;;11.45;7.55;;;16.50;99.90;;;;;;4998947;28;20038;-88
2021/08/30 02:01:36;;;;;;;9.30;6.78;;;16.50;99.90;;;;;;5015091;28;20550;-88
2021/08/30 02:04:02;;;;;;;9.55;6.80;;;16.50;99.90;;;;;;5015029;28;20056;-88
2021/08/30 02:06:28;;;;;;;11.13;7.68;;;16.50;99.90;;;;;;5014776;28;20026;-88
2021/08/30 02:08:54;;;;;;;9.35;6.85;;;16.50;99.90;;;;;;5014742;28;20021;-88
2021/08/30 02:11:33;;;;;;;10.25;7.00;;;16.50;99.90;;;;;;5014481;28;20080;-87
2021/08/30 02:14:02;;;;;;;7.63;6.13;;;16.50;99.90;;;;;;5014831;28;20109;-89
2021/08/30 02:16:28;;;;;;;10.65;7.15;;;16.50;99.90;;;;;;5014507;28;20013;-88
2021/08/30 02:19:12;;;;;;;9.60;7.05;;;16.50;99.90;;;;;;5014487;28;20484;-88
2021/08/30 02:21:43;;;;;;;9.93;6.47;;;16.50;99.90;;;;;;5014638;28;20137;-88
2021/08/30 02:24:27;;;;;;;11.88;7.40;;;16.50;99.90;;;;;;5014579;28;20145;-88
2021/08/30 02:26:59;;;;;;;8.27;6.30;;;16.50;99.90;;;;;;5014594;28;20128;-88
2021/08/30 02:29:30;;;;;;;8.57;7.07;;;16.50;99.90;;;;;;5014413;28;20026;-88
2021/08/30 02:32:01;;;;;;;9.32;7.50;;;16.50;99.90;;;;;;5014545;28;20275;-88
2021/08/30 02:34:28;;;;;;;9.35;6.95;;;16.50;99.90;;;;;;5014090;28;20037;-88
2021/08/30 02:36:57;;;;;;;8.88;6.30;;;16.50;99.90;;;;;;5015194;28;20026;-88
2021/08/30 02:39:23;;;;;;;11.07;7.75;;;16.50;99.90;;;;;;5014147;28;20042;-88
2021/08/30 02:41:50;;;;;;;9.40;7.03;;;16.50;99.90;;;;;;5014090;28;20057;-88
2021/08/30 02:44:17;;;;;;;9.82;6.93;;;16.50;99.90;;;;;;5013481;28;20054;-88
2021/08/30 02:46:49;;;;;;;8.80;6.50;;;16.50;99.90;;;;;;4997729;28;20033;-88
2021/08/30 02:49:15;;;;;;;11.43;7.05;;;16.50;99.90;;;;;;4997973;28;20030;-88
2021/08/30 02:51:43;;;;;;;9.18;7.13;;;16.60;99.90;;;;;;4997021;28;20029;-87
2021/08/30 02:54:10;;;;;;;9.75;7.40;;;16.50;99.90;;;;;;5013892;28;20125;-88
2021/08/30 02:56:37;;;;;;;10.30;7.20;;;16.50;99.90;;;;;;4997531;28;20029;-88
2021/08/30 02:59:03;;;;;;;10.00;7.80;;;16.50;99.90;;;;;;5013804;28;20044;-88
2021/08/30 03:01:30;;;;;;;11.30;7.50;;;16.60;99.90;;;;;;5013521;28;20022;-87
2021/08/30 03:03:59;;;;;;;10.95;8.23;;;16.50;99.90;;;;;;5015177;28;20029;-88
2021/08/30 03:06:26;;;;;;;9.95;7.28;;;16.50;99.90;;;;;;5014710;28;20053;-88
2021/08/30 03:08:52;;;;;;;10.50;7.40;;;16.50;99.90;;;;;;5014334;28;20144;-87
2021/08/30 03:11:21;;;;;;;10.48;8.20;;;16.50;99.90;;;;;;5013427;28;20569;-88
2021/08/30 03:13:49;;;;;;;9.95;7.90;;;16.50;99.90;;;;;;5015020;28;20030;-89
2021/08/30 03:16:16;;;;;;;10.77;8.40;;;16.50;99.90;;;;;;5013709;28;20117;-90
2021/08/30 03:18:43;;;;;;;11.25;8.57;;;16.50;99.90;;;;;;5013626;28;20362;-88
2021/08/30 03:21:10;;;;;;;9.73;8.05;;;16.50;99.90;;;;;;5014625;28;20026;-88
2021/08/30 03:23:38;;;;;;;11.48;8.23;;;16.50;99.90;;;;;;5013354;28;20026;-88
2021/08/30 03:26:05;;;;;;;11.10;7.65;;;16.40;99.90;;;;;;5013464;28;20053;-89
2021/08/30 03:28:31;;;;;;;11.10;8.10;;;16.50;99.90;;;;;;4996952;28;20386;-88
2021/08/30 03:30:57;;;;;;;10.05;8.00;;;16.50;99.90;;;;;;5013249;28;20041;-89
2021/08/30 03:33:24;;;;;;;11.23;8.30;;;16.40;99.90;;;;;;5014373;28;20061;-89
2021/08/30 03:35:54;;;;;;;10.52;8.18;;;16.40;99.90;;;;;;5013253;28;20049;-89
2021/08/30 03:38:24;;;;;;;10.15;7.35;;;16.40;99.90;;;;;;5013079;28;20026;-90
2021/08/30 03:40:51;;;;;;;10.77;7.45;;;16.50;99.90;;;;;;5012920;28;20030;-89
2021/08/30 03:43:18;;;;;;;10.70;8.50;;;16.50;99.90;;;;;;5014085;28;20037;-89
2021/08/30 03:45:46;;;;;;;14.98;9.38;;;16.50;99.90;;;;;;5014199;28;20049;-89
2021/08/30 03:48:12;;;;;;;13.63;9.10;;;16.50;99.90;;;;;;5012937;28;20076;-89
2021/08/30 03:50:40;;;;;;;10.55;8.50;;;16.50;99.90;;;;;;5012366;28;20068;-90
2021/08/30 03:53:07;;;;;;;10.77;8.15;;;16.50;99.90;;;;;;4996725;28;20034;-89
2021/08/30 03:55:33;;;;;;;11.40;8.38;;;16.50;99.90;;;;;;5012479;28;20026;-90
2021/08/30 03:58:00;;;;;;;12.50;9.13;;;16.50;99.90;;;;;;5012825;28;20030;-88
2021/08/30 04:00:27;;;;;;;11.38;8.40;;;16.50;99.90;;;;;;5012698;28;20354;-87
2021/08/30 04:02:56;;;;;;;12.27;9.18;;;16.50;99.90;;;;;;4996418;28;20018;-87
2021/08/30 04:05:27;;;;;;;11.18;9.27;;;16.50;99.90;;;;;;5014081;28;20033;-87
2021/08/30 04:07:54;;;;;;;10.98;8.65;;;16.50;99.90;;;;;;5012576;28;20022;-87
2021/08/30 04:10:21;;;;;;;10.82;7.97;;;16.50;99.90;;;;;;4996223;28;20462;-87
2021/08/30 04:12:57;;;;;;;12.70;9.82;;;16.50;99.90;;;;;;4996359;28;20363;-88
2021/08/30 04:15:24;;;;;;;13.38;9.65;;;16.50;99.90;;;;;;5014085;28;20498;-88
2021/08/30 04:17:53;;;;;;;12.02;8.88;;;16.50;99.90;;;;;;5013072;28;20030;-87
2021/08/30 04:20:20;;;;;;;15.75;9.50;;;16.50;99.90;;;;;;5013448;28;20033;-89
2021/08/30 04:22:46;;;;;;;12.57;9.68;;;16.60;99.90;;;;;;5012199;28;20037;-87
2021/08/30 04:25:12;;;;;;;14.88;10.15;;;16.60;99.90;;;;;;4995672;28;20037;-87
2021/08/30 04:27:39;;;;;;;12.82;9.43;;;16.60;99.90;;;;;;4996118;28;20044;-87
2021/08/30 04:30:06;;;;;;;11.75;9.30;;;16.60;99.90;;;;;;5012770;28;20089;-87
2021/08/30 04:32:35;;;;;;;16.38;10.65;;;16.60;99.90;;;;;;5016036;28;20543;-89
2021/08/30 04:35:02;;;;;;;14.63;10.27;;;16.60;99.90;;;;;;5029615;28;20094;-87
2021/08/30 04:37:33;;;;;;;14.13;9.40;;;16.60;99.90;;;;;;5029969;28;20365;-88
2021/08/30 04:40:02;;;;;;;13.32;9.50;;;16.60;99.90;;;;;;5046782;28;20040;-89
2021/08/30 04:42:31;;;;;;;15.75;10.27;;;16.60;99.90;;;;;;5036904;28;20056;-89
2021/08/30 04:44:58;;;;;;;15.38;9.63;;;16.60;99.90;;;;;;5034050;28;20084;-89
2021/08/30 04:47:27;;;;;;;14.70;9.35;;;16.60;99.90;;;;;;5035786;28;20517;-89
2021/08/30 04:49:54;;;;;;;12.38;9.80;;;16.60;99.90;;;;;;5046390;28;20063;-89
2021/08/30 04:52:21;;;;;;;15.98;9.98;;;16.60;99.90;;;;;;5034740;28;20029;-89
2021/08/30 04:54:50;;;;;;;18.52;10.85;;;16.60;99.90;;;;;;5040103;28;20042;-88
2021/08/30 04:57:19;;;;;;;14.02;10.40;;;16.70;99.90;;;;;;5027162;28;20448;-89
2021/08/30 04:59:45;;;;;;;12.32;8.93;;;16.70;99.90;;;;;;5011892;28;20560;-88
2021/08/30 05:02:13;;;;;;;13.52;9.68;;;16.70;99.90;;;;;;5048793;28;20020;-89
2021/08/30 05:04:41;;;;;;;15.95;10.65;;;16.70;99.90;;;;;;5022243;28;20026;-88
2021/08/30 05:07:10;;;;;;;14.35;10.32;;;16.70;99.90;;;;;;5017437;28;20140;-89
2021/08/30 05:09:38;;;;;;;14.48;10.48;;;16.70;99.90;;;;;;5039002;28;20060;-87
2021/08/30 05:12:05;;;;;;;15.13;11.30;;;16.70;99.90;;;;;;5022263;28;20498;-88
2021/08/30 05:14:34;;;;;;;14.10;10.20;;;16.80;99.90;;;;;;5042406;28;20032;-87
2021/08/30 05:17:00;;;;;;;14.20;9.88;;;16.80;99.90;;;;;;5036182;28;20393;-89
2021/08/30 05:19:27;;;;;;;12.80;10.05;;;16.70;99.90;;;;;;5032879;28;20045;-88
2021/08/30 05:21:54;;;;;;;13.10;9.18;;;16.80;99.90;;;;;;5049425;28;20029;-88
2021/08/30 05:24:20;;;;;;;16.48;10.88;;;16.70;99.90;;;;;;5038561;28;20032;-88
2021/08/30 05:26:46;;;;;;;18.80;10.85;;;16.70;99.90;;;;;;5028648;28;20318;-89
2021/08/30 05:29:12;;;;;;;14.27;10.32;;;16.80;99.90;;;;;;5029914;28;20390;-88
2021/08/30 05:31:43;;;;;;;14.43;9.85;;;16.80;99.90;;;;;;5050333;28;20477;-88
2021/08/30 05:34:13;;;;;;;14.02;9.75;;;16.80;99.90;;;;;;5020884;28;20044;-87
2021/08/30 05:36:40;;;;;;;16.00;10.60;;;16.90;99.90;;;;;;5045666;28;20047;-88
2021/08/30 05:39:06;;;;;;;17.38;12.10;;;16.90;99.90;;;;;;5033530;28;20175;-87
2021/08/30 05:41:32;;;;;;;16.65;11.93;;;17.00;99.90;;;;;;5049926;28;20462;-87
2021/08/30 05:43:58;;;;;;;14.48;10.57;;;17.10;99.90;;;;;;5036872;28;20044;-87
2021/08/30 05:46:25;;;;;;;17.42;10.65;;;17.10;99.90;;;;;;5048230;28;20013;-88
2021/08/30 05:48:52;;;;;;;14.85;11.10;;;17.10;99.90;;;;;;5042002;28;20025;-87
2021/08/30 05:51:18;;;;;;;16.42;10.23;;;17.10;99.90;;;;;;5038728;28;20036;-87
2021/08/30 05:53:43;;;;;;;15.98;10.98;;;17.10;99.90;;;;;;5038011;28;20100;-87
2021/08/30 05:56:12;;;;;;;17.40;10.30;;;17.10;99.90;;;;;;5035953;28;20354;-88
2021/08/30 05:58:38;;;;;;;13.95;10.38;;;17.10;99.90;;;;;;5026497;28;20091;-88
2021/08/30 06:01:06;;;;;;;12.52;10.00;;;17.20;99.90;;;;;;5042814;28;20454;-88
2021/08/30 06:03:32;;;;;;;17.55;10.80;;;17.20;99.90;;;;;;5038924;28;20033;-87
2021/08/30 06:06:01;;;;;;;13.70;9.50;;;17.20;99.90;;;;;;5051030;28;20399;-89
2021/08/30 06:08:27;;;;;;;14.40;9.60;;;17.20;99.90;;;;;;5042113;28;20376;-87
2021/08/30 06:10:56;;;;;;;11.60;9.18;;;17.30;99.90;;;;;;5027090;28;20084;-88
2021/08/30 06:13:25;;;;;;;14.13;9.05;;;17.30;99.90;;;;;;5048804;28;20037;-88
2021/08/30 06:15:51;;;;;;;13.77;9.43;;;17.40;99.90;;;;;;5020771;28;20056;-89
2021/08/30 06:18:17;;;;;;;15.25;9.82;;;17.40;99.90;;;;;;5048749;28;20412;-89
2021/08/30 06:20:48;;;;;;;13.35;8.85;;;17.50;99.90;;;;;;5042908;28;20014;-89
2021/08/30 06:23:14;;;;;;;10.88;8.68;;;17.50;99.90;;;;;;5042287;28;20485;-91
2021/08/30 06:25:40;;;;;;;12.63;8.40;;;17.60;99.90;;;;;;5034255;28;20025;-89
2021/08/30 06:28:06;;;;;;;14.50;9.38;;;17.60;99.90;;;;;;5049025;28;20053;-89
2021/08/30 06:30:36;;;;;;;13.43;9.23;;;17.60;99.90;;;;;;5057084;28;20109;-89
2021/08/30 06:33:13;;;;;;;14.00;9.80;;;17.60;99.90;;;;;;5041817;28;20063;-89
2021/08/30 06:35:42;;;;;;;13.70;9.40;;;17.70;99.90;;;;;;5033682;28;20418;-88
2021/08/30 06:38:21;;;;;;;11.48;8.50;;;17.80;99.90;;;;;;5031327;28;20082;-90
2021/08/30 06:40:47;;;;;;;13.50;8.85;;;17.90;99.90;;;;;;5039564;28;20469;-87
2021/08/30 06:43:13;;;;;;;12.93;8.65;;;17.90;99.90;;;;;;5042207;28;20025;-88
2021/08/30 06:45:41;;;;;;;11.48;9.20;;;18.00;99.90;;;;;;5028663;28;20040;-88
2021/08/30 06:48:07;;;;;;;13.57;9.20;;;18.10;99.90;;;;;;5035999;28;20381;-88
2021/08/30 06:50:34;;;;;;;13.20;9.88;;;18.20;99.90;;;;;;5026942;28;20548;-87
2021/08/30 06:53:00;;;;;;;14.90;10.40;;;18.20;99.90;;;;;;5008556;28;20025;-89
2021/08/30 06:55:28;;;;;;;15.20;10.65;;;18.30;99.90;;;;;;5025069;28;20056;-87
2021/08/30 06:57:53;;;;;;;14.95;10.55;;;18.30;99.90;;;;;;5025857;28;20030;-87
2021/08/30 07:00:19;;;;;;;18.13;10.88;;;18.40;99.90;;;;;;5056762;28;20049;-88
2021/08/30 07:02:48;;;;;;;14.00;10.93;;;18.40;99.90;;;;;;5024426;28;20028;-88
2021/08/30 07:05:17;;;;;;;14.15;10.38;;;18.40;99.90;;;;;;5008360;28;20025;-89
2021/08/30 07:07:46;;;;;;;15.95;10.57;;;18.40;99.90;;;;;;5024601;28;20132;-88
2021/08/30 07:10:13;;;;;;;18.27;10.65;;;18.40;99.90;;;;;;5025876;28;20052;-89
2021/08/30 07:12:40;;;;;;;13.70;10.20;;;18.40;99.90;;;;;;5009903;28;20034;-88
2021/08/30 07:15:07;;;;;;;13.20;9.68;;;18.40;99.90;;;;;;5026724;28;20044;-89
2021/08/30 07:17:33;;;;;;;16.35;10.27;;;18.30;99.90;;;;;;5048575;28;20027;-89
2021/08/30 07:19:59;;;;;;;13.38;9.88;;;18.30;99.90;;;;;;5018436;28;20040;-88
2021/08/30 07:22:25;;;;;;;16.17;9.93;;;18.30;99.90;;;;;;5043578;28;20470;-87
2021/08/30 07:24:52;;;;;;;12.63;9.43;;;18.30;99.90;;;;;;5030641;28;20080;-88
2021/08/30 07:27:22;;;;;;;14.57;9.70;;;18.30;99.90;;;;;;5045168;28;20053;-89
2021/08/30 07:29:50;;;;;;;15.38;11.10;;;18.40;99.90;;;;;;5017825;28;20022;-88
2021/08/30 07:32:18;;;;;;;15.10;10.15;;;18.40;99.90;;;;;;5046301;28;20615;-88
2021/08/30 07:34:43;;;;;;;13.55;9.90;;;18.40;99.90;;;;;;5015808;28;20453;-88
2021/08/30 07:37:10;;;;;;;14.18;9.85;;;18.40;99.90;;;;;;5030300;28;20060;-89
2021/08/30 07:39:36;;;;;;;14.25;10.38;;;18.50;99.90;;;;;;5048364;28;20112;-89
2021/08/30 07:42:02;;;;;;;13.23;10.70;;;18.60;99.90;;;;;;5019521;28;20029;-89
2021/08/30 07:44:29;;;;;;;15.00;9.90;;;18.60;99.90;;;;;;5011152;28;20049;-89
2021/08/30 07:46:55;;;;;;;15.75;10.25;;;18.70;99.90;;;;;;5039901;28;20032;-89
2021/08/30 07:49:21;;;;;;;14.30;10.95;;;18.70;99.90;;;;;;5037093;28;20026;-89
2021/08/30 07:51:47;;;;;;;15.82;11.85;;;18.80;99.90;;;;;;5031180;28;20045;-89
2021/08/30 07:54:13;;;;;;;15.07;10.70;;;18.80;99.90;;;;;;5017439;28;20031;-89
2021/08/30 07:56:41;;;;;;;16.70;10.95;;;18.80;99.90;;;;;;5015516;28;20029;-90
2021/08/30 07:59:11;;;;;;;15.23;11.15;;;18.90;99.90;;;;;;5027373;28;20037;-88
2021/08/30 08:01:38;;;;;;;12.40;9.70;;;18.90;99.90;;;;;;5035511;28;20013;-90
2021/08/30 08:04:04;;;;;;;14.43;10.80;;;18.90;99.90;;;;;;5028969;28;20507;-88
2021/08/30 08:06:30;;;;;;;13.60;9.85;;;18.90;99.90;;;;;;5040712;28;20096;-89
2021/08/30 08:08:58;;;;;;;17.30;10.25;;;18.90;99.90;;;;;;5025059;28;20168;-88
2021/08/30 08:11:24;;;;;;;16.38;11.68;;;18.80;99.90;;;;;;5046659;28;20486;-89
2021/08/30 08:13:51;;;;;;;13.52;10.70;;;18.80;99.90;;;;;;5035737;28;20033;-89
2021/08/30 08:16:17;;;;;;;15.63;11.52;;;18.80;99.90;;;;;;5016511;28;20061;-89
2021/08/30 08:18:44;;;;;;;15.98;11.60;;;18.80;99.90;;;;;;5040733;28;20381;-88
2021/08/30 08:21:09;;;;;;;12.57;10.77;;;18.80;99.90;;;;;;5007835;28;20053;-89
2021/08/30 08:23:36;;;;;;;13.60;10.52;;;18.70;99.90;;;;;;5026851;28;20473;-88
2021/08/30 08:26:02;;;;;;;12.05;9.57;;;18.70;99.90;;;;;;5030300;28;20090;-88
2021/08/30 08:28:29;;;;;;;16.27;10.60;;;18.70;99.90;;;;;;5033431;28;20017;-88
2021/08/30 08:30:56;;;;;;;14.95;11.02;;;18.70;99.90;;;;;;5022729;28;20604;-88
2021/08/30 08:33:22;;;;;;;13.32;10.10;;;18.80;99.90;;;;;;5031461;28;20022;-89
2021/08/30 08:35:48;;;;;;;14.05;10.88;;;18.90;99.90;;;;;;5037129;28;20033;-88
2021/08/30 08:38:14;;;;;;;12.25;10.85;;;19.10;99.90;;;;;;5040784;28;20021;-88
2021/08/30 08:40:40;;;;;;;13.18;10.63;;;19.20;99.90;;;;;;5046619;28;20164;-88
2021/08/30 08:43:17;;;;;;;14.15;10.82;;;19.40;99.90;;;;;;5047356;28;20032;-89
2021/08/30 08:45:45;;;;;;;17.48;10.80;;;19.70;99.90;;;;;;5021729;28;20061;-88
2021/08/30 08:48:12;;;;;;;12.43;10.60;;;20.00;99.90;;;;;;5041572;28;20045;-88
2021/08/30 08:50:39;;;;;;;14.77;10.80;;;20.20;99.90;;;;;;5031230;28;20021;-89
2021/08/30 08:53:07;;;;;;;14.43;11.02;;;20.50;99.90;;;;;;5048454;28;20330;-90
2021/08/30 08:55:36;;;;;;;14.23;10.05;;;20.70;99.90;;;;;;5031368;28;20274;-89
2021/08/30 08:58:20;;;;;;;12.80;10.15;;;20.80;99.90;;;;;;5039336;28;20087;-89
2021/08/30 09:00:58;;;;;;;10.75;8.57;;;20.90;99.90;;;;;;5045715;28;20026;-89
2021/08/30 09:03:24;;;;;;;11.00;9.25;;;20.90;99.90;;;;;;5041701;28;20026;-88
2021/08/30 09:06:03;;;;;;;12.18;9.52;;;21.00;99.90;;;;;;5042936;28;20533;-89
2021/08/30 09:08:47;;;;;;;12.40;8.85;;;21.10;99.90;;;;;;5048688;28;20022;-90
2021/08/30 09:11:20;;;;;;;11.15;7.90;;;21.10;99.90;;;;;;5047996;28;20052;-89
2021/08/30 09:13:57;;;;;;;11.38;8.45;;;21.20;99.90;;;;;;5019487;28;20030;-90
2021/08/30 09:16:26;;;;;;;10.85;7.57;;;21.20;99.90;;;;;;5038939;28;20460;-90
2021/08/30 09:19:07;;;;;;;9.70;7.82;;;21.10;99.90;;;;;;5036788;28;20042;-89
2021/08/30 09:21:34;;;;;;;8.32;7.40;;;21.20;99.90;;;;;;5043593;28;20495;-90
2021/08/30 09:24:14;;;;;;;9.23;7.00;;;21.10;99.90;;;;;;5025137;28;20124;-89
2021/08/30 09:26:48;;;;;;;10.25;7.28;;;21.00;99.90;;;;;;5014104;28;20037;-89
2021/08/30 09:29:41;;;;;;;8.95;6.95;;;20.90;99.90;;;;;;5047627;28;20044;-89
2021/08/30 09:32:13;;;;;;;9.65;6.53;;;20.80;99.90;;;;;;5023310;28;20100;-89
2021/08/30 09:34:57;;;;;;;8.38;6.68;;;20.70;99.90;;;;;;5041874;28;20508;-90
2021/08/30 09:37:31;;;;;;;9.85;7.63;;;20.60;99.90;;;;;;5034555;28;20034;-90
2021/08/30 09:39:59;;;;;;;8.82;7.35;;;20.80;99.90;;;;;;5014874;28;20053;-90
2021/08/30 09:42:26;;;;;;;10.23;7.70;;;21.20;99.90;;;;;;5015373;28;20063;-90
2021/08/30 09:44:57;;;;;;;8.85;7.20;;;21.90;99.90;;;;;;5027314;28;20061;-90
2021/08/30 09:47:23;;;;;;;9.27;7.88;;;22.60;99.90;;;;;;5018170;28;20068;-90
2021/08/30 09:49:52;;;;;;;9.35;7.90;;;22.80;99.90;;;;;;5052831;28;20041;-90
2021/08/30 09:52:20;;;;;;;9.10;7.45;;;22.70;99.90;;;;;;5036608;28;20061;-90
2021/08/30 09:54:47;;;;;;;8.52;6.53;;;22.60;99.90;;;;;;5031904;28;20474;-90
2021/08/30 09:57:14;;;;;;;8.75;6.93;;;22.40;99.90;;;;;;5008912;28;20030;-90
2021/08/30 09:59:50;;;;;;;8.75;6.45;;;22.40;99.90;;;;;;5023155;28;20064;-89
2021/08/30 10:02:18;;;;;;;8.00;6.85;;;22.30;99.90;;;;;;5050244;28;20037;-89
2021/08/30 10:04:50;;;;;;;7.53;6.63;;;22.20;99.90;;;;;;5033031;28;20033;-90
2021/08/30 10:07:23;;;;;;;10.80;7.15;;;22.00;99.90;;;;;;5018123;28;20061;-90
2021/08/30 10:09:54;;;;;;;8.55;6.10;;;21.70;99.90;;;;;;5050257;28;20127;-89
2021/08/30 10:12:22;;;;;;;8.60;7.00;;;21.50;99.90;;;;;;5037233;28;20028;-88
2021/08/30 10:14:55;;;;;;;9.70;7.22;;;21.30;99.90;;;;;;5032967;28;20041;-88
2021/08/30 10:17:24;;;;;;;9.10;6.38;;;21.40;99.90;;;;;;5042776;28;20032;-88
2021/08/30 10:20:03;;;;;;;9.10;6.93;;;22.00;99.90;;;;;;5001014;28;20045;-88
2021/08/30 10:22:29;;;;;;;7.95;7.00;;;23.30;99.90;;;;;;5046102;28;20031;-88
2021/08/30 10:24:57;;;;;;;8.20;5.88;;;24.20;99.90;;;;;;5024497;28;20511;-89
2021/08/30 10:27:35;;;;;;;8.00;6.35;;;25.40;99.90;;;;;;5045073;28;20095;-89
2021/08/30 10:30:28;;;;;;;8.40;5.85;;;26.20;99.90;;;;;;5048039;28;20040;-89
2021/08/30 10:33:01;;;;;;;7.57;6.03;;;26.00;99.90;;;;;;5045808;28;20475;-89
2021/08/30 10:35:36;;;;;;;7.82;6.38;;;25.40;99.90;;;;;;5039486;28;20037;-88
2021/08/30 10:38:06;;;;;;;7.65;6.07;;;24.90;99.90;;;;;;5047728;28;20029;-89
2021/08/30 10:40:35;;;;;;;7.75;6.00;;;24.70;99.90;;;;;;5038830;28;20103;-89
2021/08/30 10:43:15;;;;;;;8.02;6.22;;;24.30;99.90;;;;;;5039790;28;20053;-89
2021/08/30 10:45:57;;;;;;;7.18;6.28;;;24.00;99.90;;;;;;5039301;28;20162;-88
2021/08/30 10:48:37;;;;;;;8.48;5.95;;;23.90;99.90;;;;;;5037226;28;20017;-88
2021/08/30 10:51:13;;;;;;;7.20;5.63;;;23.60;99.90;;;;;;5039701;28;20068;-89
2021/08/30 10:53:53;;;;;;;8.35;5.90;;;23.20;99.90;;;;;;5031584;28;20052;-88
2021/08/30 10:56:24;;;;;;;7.78;6.38;;;23.00;99.90;;;;;;5034485;28;20101;-89
2021/08/30 10:58:58;;;;;;;5.82;5.22;;;23.20;99.90;;;;;;5041662;28;20104;-89
2021/08/30 11:01:24;;;;;;;7.53;5.38;;;24.30;99.90;;;;;;5020875;28;20026;-89
2021/08/30 11:03:55;;;;;;;7.10;5.22;;;24.80;99.90;;;;;;5019449;28;20374;-89
2021/08/30 11:06:23;;;;;;;6.38;5.35;;;25.00;99.90;;;;;;5014440;28;20532;-89
2021/08/30 11:08:50;;;;;;;6.97;5.43;;;25.00;99.90;;;;;;5014715;28;20448;-88
2021/08/30 11:11:24;;;;;;;29.08;5.68;;;24.90;99.90;;;;;;5043850;28;20094;-89
2021/08/30 11:14:10;;;;;;;11.95;5.47;;;24.70;99.90;;;;;;5034399;28;20044;-89
2021/08/30 11:16:39;;;;;;;7.68;5.10;;;24.40;99.90;;;;;;5013153;28;20490;-88
2021/08/30 11:19:13;;;;;;;6.05;4.88;;;24.10;99.90;;;;;;5035437;28;20478;-88
2021/08/30 11:21:53;;;;;;;5.88;4.63;;;23.80;99.90;;;;;;5023429;28;20068;-88
2021/08/30 11:24:35;;;;;;;7.68;5.22;;;23.60;99.90;;;;;;5045142;28;20433;-88
2021/08/30 11:27:08;;;;;;;6.85;5.40;;;23.70;99.90;;;;;;5028800;28;20029;-89
2021/08/30 11:29:40;;;;;;;6.72;5.15;;;24.90;99.90;;;;;;5036584;28;20045;-88
2021/08/30 11:32:09;;;;;;;5.68;4.65;;;26.50;99.90;;;;;;5013497;28;20489;-89
2021/08/30 11:34:38;;;;;;;6.97;4.65;;;27.90;99.90;;;;;;5038334;28;20032;-89
2021/08/30 11:37:09;;;;;;;5.97;4.60;;;28.80;99.90;;;;;;5040023;28;20017;-89
2021/08/30 11:39:47;;;;;;;5.63;4.63;;;29.30;99.90;;;;;;5014190;28;20511;-89
2021/08/30 11:42:35;;;;;;;6.80;4.75;;;28.80;99.90;;;;;;5019706;28;20025;-89
2021/08/30 11:45:04;;;;;;;5.38;4.10;;;27.90;99.90;;;;;;5041508;28;20496;-89
2021/08/30 11:47:31;;;;;;;5.47;4.32;;;27.10;99.90;;;;;;5034633;28;20389;-89
2021/08/30 11:50:03;;;;;;;5.35;4.45;;;26.50;99.90;;;;;;5046349;28;20041;-89
2021/08/30 11:52:32;;;;;;;6.03;4.40;;;26.10;99.90;;;;;;5037157;28;20045;-89
2021/08/30 11:55:04;;;;;;;4.95;4.20;;;25.60;99.90;;;;;;5022189;28;20521;-88
2021/08/30 11:58:04;;;;;;;5.10;4.05;;;25.20;99.90;;;;;;5041655;28;20052;-89
2021/08/30 12:00:31;;;;;;;4.93;4.25;;;24.80;99.90;;;;;;5025623;28;20036;-89
2021/08/30 12:03:00;;;;;;;5.60;4.53;;;24.50;99.90;;;;;;5018383;28;20366;-89
2021/08/30 12:05:30;;;;;;;5.43;4.57;;;24.30;99.90;;;;;;5045211;28;20030;-89
2021/08/30 12:07:59;;;;;;;6.10;4.95;;;24.10;99.90;;;;;;5032256;28;20029;-89
2021/08/30 12:10:28;;;;;;;4.97;4.32;;;23.90;99.90;;;;;;5026116;28;20532;-89
2021/08/30 12:15:36;;;;;;;5.80;4.25;;;24.70;99.90;;;;;;5034468;28;20355;-89
2021/08/30 12:18:03;;;;;;;5.10;4.13;;;24.90;99.90;;;;;;5041883;28;20021;-89
2021/08/30 12:20:33;;;;;;;5.65;3.80;;;24.90;99.90;;;;;;5036678;28;20041;-89
2021/08/30 12:23:17;;;;;;;4.65;3.83;;;24.80;99.90;;;;;;5038684;28;20113;-88
2021/08/30 12:25:48;;;;;;;4.70;3.70;;;24.80;99.90;;;;;;5046106;28;20029;-89
2021/08/30 12:28:34;;;;;;;5.05;3.85;;;25.50;99.90;;;;;;5017934;28;20037;-89
2021/08/30 12:31:04;;;;;;;5.55;3.95;;;27.10;99.90;;;;;;5036335;28;20045;-88
2021/08/30 12:33:33;;;;;;;6.57;3.92;;;28.30;99.90;;;;;;5034031;28;20156;-89
2021/08/30 12:36:01;;;;;;;4.65;3.80;;;29.20;99.90;;;;;;5045788;28;20116;-89
2021/08/30 12:38:29;;;;;;;5.50;3.83;;;30.00;99.90;;;;;;5027678;28;20025;-89
2021/08/30 12:41:02;;;;;;;4.07;3.10;;;30.80;99.60;;;;;;5041121;28;20044;-89
2021/08/30 12:43:37;;;;;;;4.13;3.40;;;31.30;98.30;;;;;;5023454;28;20028;-89
2021/08/30 12:46:07;;;;;;;4.13;3.40;;;31.30;97.10;;;;;;5044780;28;20489;-89
2021/08/30 12:48:34;;;;;;;4.40;3.60;;;30.60;97.10;;;;;;5052903;28;20029;-89
2021/08/30 12:51:00;;;;;;;4.18;3.42;;;30.20;96.60;;;;;;5021474;28;20033;-89
2021/08/30 12:53:38;;;;;;;5.60;3.45;;;30.20;96.50;;;;;;5044114;28;20033;-89
2021/08/30 12:56:04;;;;;;;4.18;3.10;;;29.80;96.00;;;;;;5014662;28;20029;-90